Time;durP1;ratioP1;P1;durP2;ratioP2;P2;SDS_P1;SDS_P2;PMS_P1;PMS_P2;Temp;Humidity;BMP_temperature;BMP_pressure;BME280_temperature;BME280_humidity;BME280_pressure;Samples;Min_cycle;Max_cycle;Signal;HPM_P1;HPM_P2
2021/06/18 00:02:12;;;;;;;8.02;5.87;;;;;;;26.70;41.70;99905.44;4484633;32;32828;-70
2021/06/18 00:04:40;;;;;;;8.52;5.37;;;;;;;26.72;41.70;99902.50;4484221;32;33878;-72
2021/06/18 00:07:08;;;;;;;8.32;5.65;;;;;;;26.68;41.80;99896.66;4484126;32;34854;-73
2021/06/18 00:09:36;;;;;;;7.70;5.20;;;;;;;26.68;41.88;99888.47;4484423;32;34316;-71
2021/06/18 00:12:05;;;;;;;10.38;5.32;;;;;;;26.70;41.86;99889.03;4483970;32;33635;-72
2021/06/18 00:14:33;;;;;;;10.05;5.70;;;;;;;26.68;42.06;99891.19;4484402;32;33757;-68
2021/06/18 00:17:00;;;;;;;9.70;5.93;;;;;;;26.69;42.05;99884.63;4484311;32;34762;-69
2021/06/18 00:19:28;;;;;;;7.45;5.25;;;;;;;26.69;42.03;99887.37;4482917;32;34068;-73
2021/06/18 00:21:55;;;;;;;8.18;4.93;;;;;;;26.71;41.98;99889.84;4484266;32;33453;-70
2021/06/18 00:24:23;;;;;;;8.18;5.22;;;;;;;26.70;41.83;99889.03;4484412;32;33524;-67
2021/06/18 00:26:51;;;;;;;8.10;5.10;;;;;;;26.69;41.83;99881.91;4484220;32;34083;-71
2021/06/18 00:29:18;;;;;;;9.13;5.75;;;;;;;26.69;41.88;99881.91;4484032;32;34118;-70
2021/06/18 00:31:46;;;;;;;9.38;5.72;;;;;;;26.70;41.91;99880.81;4484364;32;34265;-72
2021/06/18 00:34:14;;;;;;;9.00;5.55;;;;;;;26.71;41.79;99885.22;4484220;32;35501;-72
2021/06/18 00:36:41;;;;;;;8.75;5.22;;;;;;;26.69;41.70;99870.94;4484254;32;33914;-72
2021/06/18 00:39:09;;;;;;;10.02;5.47;;;;;;;26.71;41.70;99884.38;4484061;32;34833;-70
2021/06/18 00:41:37;;;;;;;8.38;5.90;;;;;;;26.72;41.67;99886.06;4484028;32;33574;-73
2021/06/18 00:44:05;;;;;;;10.75;5.80;;;;;;;26.71;41.68;99873.44;4484052;32;34452;-69
2021/06/18 00:46:32;;;;;;;10.88;6.50;;;;;;;26.70;41.64;99878.06;4483835;32;34003;-73
2021/06/18 00:49:00;;;;;;;12.45;6.70;;;;;;;26.70;41.55;99885.47;4483647;32;33998;-70
2021/06/18 00:51:28;;;;;;;8.18;5.55;;;;;;;26.71;41.52;99887.94;4482863;32;34329;-71
2021/06/18 00:53:56;;;;;;;11.25;5.60;;;;;;;26.69;41.55;99881.91;4484192;32;33841;-73
2021/06/18 00:56:23;;;;;;;12.25;5.30;;;;;;;26.70;41.55;99880.00;4482692;32;34793;-68
2021/06/18 00:58:51;;;;;;;10.85;5.40;;;;;;;26.69;41.67;99881.06;4482761;32;34006;-72
2021/06/18 01:01:19;;;;;;;12.85;5.70;;;;;;;26.69;41.55;99879.16;4484346;32;33508;-72
2021/06/18 01:03:47;;;;;;;9.38;5.22;;;;;;;26.69;41.56;99887.37;4483878;32;33783;-68
2021/06/18 01:06:17;;;;;;;8.25;5.50;;;;;;;26.71;41.53;99895.31;4483961;32;33932;-72
2021/06/18 01:08:48;;;;;;;8.75;5.85;;;;;;;26.68;41.52;99893.09;4483814;32;34092;-68
2021/06/18 01:11:45;;;;;;;9.38;5.87;;;;;;;26.68;41.51;99895.84;4482554;32;33489;-68
2021/06/18 01:14:43;;;;;;;8.57;5.40;;;;;;;26.71;41.52;99900.81;4471369;32;33507;-70
2021/06/18 01:17:17;;;;;;;9.48;5.65;;;;;;;26.70;41.53;99893.69;4482773;32;33885;-66
2021/06/18 01:20:17;;;;;;;11.63;6.05;;;;;;;26.67;41.52;99889.53;4469925;32;35426;-72
2021/06/18 01:22:46;;;;;;;8.32;5.57;;;;;;;26.69;41.56;99887.37;4483807;32;33506;-73
2021/06/18 01:25:31;;;;;;;8.07;6.15;;;;;;;26.66;41.62;99890.59;4482692;32;33676;-71
2021/06/18 01:28:03;;;;;;;8.80;5.55;;;;;;;26.65;41.64;99891.69;4483530;32;32535;-69
2021/06/18 01:30:31;;;;;;;9.23;5.62;;;;;;;26.65;41.60;99886.19;4483322;32;34802;-72
2021/06/18 01:33:08;;;;;;;9.32;5.60;;;;;;;26.65;41.58;99880.72;4469748;32;34208;-67
2021/06/18 01:35:46;;;;;;;10.35;5.72;;;;;;;26.65;41.74;99891.69;4482637;32;33846;-71
2021/06/18 01:38:14;;;;;;;8.38;5.68;;;;;;;26.67;41.75;99888.69;4469798;32;33829;-73
2021/06/18 01:40:42;;;;;;;10.02;5.75;;;;;;;26.66;41.65;99900.72;4469576;32;33708;-70
2021/06/18 01:43:09;;;;;;;9.25;6.10;;;;;;;26.65;41.41;99901.78;4469930;32;33359;-67
2021/06/18 01:45:37;;;;;;;8.48;5.30;;;;;;;26.63;41.39;99899.31;4482300;32;33830;-72
2021/06/18 01:48:05;;;;;;;7.28;5.37;;;;;;;26.64;41.38;99897.41;4482148;32;34841;-67
2021/06/18 01:50:33;;;;;;;8.88;5.55;;;;;;;26.63;41.33;99893.84;4469524;32;34799;-72
2021/06/18 01:53:09;;;;;;;9.43;5.90;;;;;;;26.63;41.46;99888.38;4483070;32;33195;-72
2021/06/18 01:55:38;;;;;;;10.90;5.82;;;;;;;26.62;41.51;99881.22;4483405;32;33864;-71
2021/06/18 01:58:05;;;;;;;7.37;5.82;;;;;;;26.60;41.59;99877.91;4483515;32;33906;-72
2021/06/18 02:00:35;;;;;;;7.43;5.22;;;;;;;26.61;41.51;99885.03;4482542;32;33371;-72
2021/06/18 02:03:04;;;;;;;11.45;5.60;;;;;;;26.62;41.35;99894.06;4469562;32;33500;-72
2021/06/18 02:05:32;;;;;;;8.60;5.90;;;;;;;26.62;41.35;99891.31;4469226;32;34470;-72
2021/06/18 02:07:59;;;;;;;10.15;5.78;;;;;;;26.62;41.30;99892.16;4482883;32;33957;-68
2021/06/18 02:10:35;;;;;;;11.90;6.00;;;;;;;26.62;41.41;99894.06;4470122;32;34731;-71
2021/06/18 02:13:08;;;;;;;11.90;5.68;;;;;;;26.62;41.54;99888.59;4469098;32;34193;-73
2021/06/18 02:15:39;;;;;;;7.15;5.28;;;;;;;26.62;41.42;99888.59;4483177;32;33863;-72
2021/06/18 02:18:07;;;;;;;9.65;5.78;;;;;;;26.60;41.40;99888.84;4483255;32;34824;-66
2021/06/18 02:20:34;;;;;;;8.77;5.25;;;;;;;26.60;41.32;99883.38;4482837;32;34779;-73
2021/06/18 02:23:02;;;;;;;12.18;6.50;;;;;;;26.60;41.32;99888.84;4482322;32;34300;-69
2021/06/18 02:25:31;;;;;;;13.90;6.12;;;;;;;26.60;41.43;99886.13;4482003;32;35046;-72
2021/06/18 02:27:58;;;;;;;10.98;5.68;;;;;;;26.60;41.53;99886.13;4465716;32;33871;-70
2021/06/18 02:30:26;;;;;;;10.35;5.90;;;;;;;26.60;41.46;99877.06;4466008;32;34127;-72
2021/06/18 02:32:54;;;;;;;12.37;5.95;;;;;;;26.61;41.46;99886.94;4466155;32;33612;-72
2021/06/18 02:35:23;;;;;;;10.27;6.18;;;;;;;26.59;41.45;99880.91;4453286;32;33791;-72
2021/06/18 02:37:50;;;;;;;9.48;5.68;;;;;;;26.59;41.33;99884.47;4467307;32;33924;-71
2021/06/18 02:40:18;;;;;;;10.93;5.82;;;;;;;26.58;41.26;99901.97;4467186;32;34087;-73
2021/06/18 02:42:46;;;;;;;12.15;6.72;;;;;;;26.59;41.32;99902.78;4467314;32;33478;-70
2021/06/18 02:45:14;;;;;;;11.18;5.93;;;;;;;26.59;41.50;99900.06;4469334;32;33922;-70
2021/06/18 02:47:49;;;;;;;11.77;6.05;;;;;;;26.59;41.36;99891.84;4482417;32;34672;-71
2021/06/18 02:50:23;;;;;;;10.82;6.30;;;;;;;26.57;41.28;99889.31;4483780;32;35026;-72
2021/06/18 02:52:57;;;;;;;9.52;5.87;;;;;;;26.58;41.37;99891.00;4484986;32;34372;-70
2021/06/18 02:55:48;;;;;;;8.13;6.07;;;;;;;26.57;41.25;99892.06;4471148;32;33530;-73
2021/06/18 02:58:37;;;;;;;10.38;5.87;;;;;;;26.60;41.27;99891.59;4461323;31;34593;-73
2021/06/18 03:01:05;;;;;;;8.07;5.93;;;;;;;26.57;41.33;99899.44;4484870;32;34829;-73
2021/06/18 03:03:43;;;;;;;12.02;5.65;;;;;;;26.58;41.36;99891.00;4483557;32;34287;-67
2021/06/18 03:06:11;;;;;;;11.25;5.85;;;;;;;26.58;41.36;99888.28;4470787;32;33753;-73
2021/06/18 03:08:40;;;;;;;15.27;6.07;;;;;;;26.57;41.54;99900.28;4483101;32;34017;-73
2021/06/18 03:11:09;;;;;;;11.35;5.78;;;;;;;26.56;41.59;99893.16;4467627;32;34101;-72
2021/06/18 03:13:40;;;;;;;9.70;4.97;;;;;;;26.57;41.69;99894.81;4467967;32;33480;-71
2021/06/18 03:16:11;;;;;;;19.27;6.40;;;;;;;26.57;41.65;99904.91;4467974;32;33596;-72
2021/06/18 03:18:41;;;;;;;8.45;5.80;;;;;;;26.58;41.63;99901.09;4467859;32;34608;-72
2021/06/18 03:21:09;;;;;;;11.38;5.90;;;;;;;26.57;41.63;99892.06;4467634;32;34166;-73
2021/06/18 03:23:37;;;;;;;9.75;6.18;;;;;;;26.56;41.62;99895.88;4467627;32;34408;-67
2021/06/18 03:26:05;;;;;;;9.05;6.35;;;;;;;26.56;41.61;99895.88;4468087;32;33886;-73
2021/06/18 03:28:33;;;;;;;9.82;5.87;;;;;;;26.56;41.63;99892.31;4479434;32;34890;-73
2021/06/18 03:31:07;;;;;;;8.18;5.80;;;;;;;26.56;41.57;99898.62;4470419;32;33731;-73
2021/06/18 03:33:35;;;;;;;9.23;6.00;;;;;;;26.56;41.60;99900.53;4484648;32;33551;-73
2021/06/18 03:36:04;;;;;;;11.68;5.87;;;;;;;26.57;41.50;99899.44;4483438;32;33382;-73
2021/06/18 03:38:32;;;;;;;11.02;6.22;;;;;;;26.56;41.43;99898.62;4483689;32;33786;-71
2021/06/18 03:41:00;;;;;;;9.25;5.80;;;;;;;26.57;41.43;99894.81;4483378;32;33964;-72
2021/06/18 03:43:27;;;;;;;13.98;5.50;;;;;;;26.56;41.45;99886.84;4470444;32;34653;-72
2021/06/18 03:46:01;;;;;;;14.68;5.80;;;;;;;26.56;41.55;99882.19;4483021;32;33672;-66
2021/06/18 03:48:29;;;;;;;13.80;5.70;;;;;;;26.56;41.66;99889.59;4484505;32;33903;-72
2021/06/18 03:50:58;;;;;;;8.15;6.12;;;;;;;26.56;41.66;99895.88;4470187;32;33724;-67
2021/06/18 03:53:26;;;;;;;8.25;5.75;;;;;;;26.58;41.68;99896.47;4483046;32;33478;-73
2021/06/18 03:55:53;;;;;;;9.77;6.07;;;;;;;26.57;41.86;99894.81;4483166;32;33851;-74
2021/06/18 03:58:21;;;;;;;12.02;6.32;;;;;;;26.57;41.70;99897.53;4482994;32;33862;-70
2021/06/18 04:00:50;;;;;;;12.77;5.62;;;;;;;26.58;41.65;99892.88;4474271;31;35055;-69
2021/06/18 04:03:19;;;;;;;11.52;5.85;;;;;;;26.58;41.56;99898.38;4498828;31;34545;-70
2021/06/18 04:05:48;;;;;;;10.88;5.80;;;;;;;26.58;41.46;99903.84;4490209;31;33398;-74
2021/06/18 04:08:16;;;;;;;8.50;6.15;;;;;;;26.59;41.45;99902.78;4482526;32;33923;-66
2021/06/18 04:10:44;;;;;;;12.18;6.28;;;;;;;26.61;41.43;99908.84;4482962;32;33983;-69
2021/06/18 04:13:12;;;;;;;9.95;5.35;;;;;;;26.60;41.45;99901.72;4482944;32;33569;-70
2021/06/18 04:15:39;;;;;;;9.07;5.32;;;;;;;26.60;41.46;99908.00;4482921;32;34702;-71
2021/06/18 04:18:08;;;;;;;13.75;6.28;;;;;;;26.60;41.55;99908.00;4473734;32;33950;-70
2021/06/18 04:20:36;;;;;;;12.05;5.50;;;;;;;26.60;41.50;99901.72;4453932;32;34602;-69
2021/06/18 04:23:04;;;;;;;11.80;5.70;;;;;;;26.61;41.50;99904.19;4479261;32;33370;-63
2021/06/18 04:25:31;;;;;;;10.35;5.47;;;;;;;26.62;41.57;99905.84;4484233;32;34677;-63
2021/06/18 04:27:59;;;;;;;8.38;5.97;;;;;;;26.62;41.54;99905.84;4483825;32;33680;-60
2021/06/18 04:30:27;;;;;;;9.90;5.37;;;;;;;26.63;41.53;99902.06;4484459;32;34049;-68
2021/06/18 04:32:55;;;;;;;13.50;5.70;;;;;;;26.66;41.43;99900.72;4484176;32;33574;-65
2021/06/18 04:35:22;;;;;;;9.98;5.57;;;;;;;26.67;41.38;99895.00;4484031;32;33762;-74
2021/06/18 04:37:50;;;;;;;17.17;6.10;;;;;;;26.68;41.43;99906.78;4482934;32;33881;-72
2021/06/18 04:40:18;;;;;;;14.25;6.00;;;;;;;26.64;41.71;99898.22;4483221;32;33856;-70
2021/06/18 04:42:46;;;;;;;20.58;5.97;;;;;;;26.64;41.75;99902.87;4484458;32;33616;-66
2021/06/18 04:45:13;;;;;;;16.45;6.37;;;;;;;26.64;41.75;99900.13;4483814;32;34728;-72
2021/06/18 04:47:41;;;;;;;19.25;7.03;;;;;;;26.62;41.78;99900.38;4483844;32;33556;-68
2021/06/18 04:50:27;;;;;;;13.90;6.40;;;;;;;26.64;41.79;99903.72;4484113;32;33257;-72
2021/06/18 04:52:55;;;;;;;17.27;6.18;;;;;;;26.62;41.77;99908.56;4484095;32;33308;-72
2021/06/18 04:55:23;;;;;;;16.42;6.65;;;;;;;26.62;41.77;99910.50;4484019;32;33607;-72
2021/06/18 04:57:50;;;;;;;18.87;6.50;;;;;;;26.61;41.74;99909.66;4482808;32;34738;-72
2021/06/18 05:00:23;;;;;;;13.30;6.15;;;;;;;26.62;41.71;99916.78;4482918;32;34798;-72
2021/06/18 05:02:51;;;;;;;12.15;6.78;;;;;;;26.61;41.66;99917.87;4483032;32;33359;-72
2021/06/18 05:05:19;;;;;;;12.95;5.75;;;;;;;26.59;41.67;99914.56;4483267;32;33966;-68
2021/06/18 05:07:52;;;;;;;16.02;6.07;;;;;;;26.60;41.61;99916.22;4482710;32;33888;-72
2021/06/18 05:10:20;;;;;;;15.27;6.35;;;;;;;26.60;41.63;99909.91;4484056;32;34858;-72
2021/06/18 05:12:49;;;;;;;11.65;6.47;;;;;;;26.59;41.61;99911.81;4484045;32;34082;-72
2021/06/18 05:15:18;;;;;;;9.32;5.68;;;;;;;26.59;41.58;99914.56;4483731;32;34804;-72
2021/06/18 05:17:46;;;;;;;12.40;5.70;;;;;;;26.59;41.56;99913.72;4484056;32;33803;-72
2021/06/18 05:20:14;;;;;;;12.18;6.18;;;;;;;26.60;41.52;99915.38;4483844;32;33405;-72
2021/06/18 05:22:42;;;;;;;13.62;5.97;;;;;;;26.60;41.53;99916.22;4483196;32;33426;-69
2021/06/18 05:25:11;;;;;;;9.55;5.75;;;;;;;26.61;41.48;99922.50;4482609;32;34079;-71
2021/06/18 05:27:38;;;;;;;10.60;5.68;;;;;;;26.60;41.47;99923.59;4483070;32;33827;-70
2021/06/18 05:30:08;;;;;;;13.80;5.60;;;;;;;26.60;41.46;99920.84;4483440;32;34924;-71
2021/06/18 05:32:45;;;;;;;13.50;5.37;;;;;;;26.59;41.45;99928.25;4483798;32;33510;-72
2021/06/18 05:35:13;;;;;;;11.85;5.90;;;;;;;26.61;41.41;99928.00;4483695;32;34688;-69
2021/06/18 05:37:40;;;;;;;10.48;5.45;;;;;;;26.60;41.37;99927.16;4483683;32;33610;-70
2021/06/18 05:40:08;;;;;;;12.68;6.18;;;;;;;26.61;41.35;99925.25;4483705;32;35026;-72
2021/06/18 05:42:36;;;;;;;9.23;5.30;;;;;;;26.59;41.33;99928.25;4483407;32;33539;-72
2021/06/18 05:45:05;;;;;;;10.05;5.45;;;;;;;26.60;41.31;99935.38;4482187;32;34525;-70
2021/06/18 05:47:34;;;;;;;8.02;5.18;;;;;;;26.59;41.34;99928.25;4482249;32;33822;-70
2021/06/18 05:50:04;;;;;;;12.63;6.47;;;;;;;26.60;41.29;99932.63;4482981;32;32582;-70
2021/06/18 05:52:33;;;;;;;9.35;5.25;;;;;;;26.61;41.25;99931.56;4467895;32;34507;-68
2021/06/18 05:55:01;;;;;;;12.20;5.30;;;;;;;26.61;41.25;99937.03;4476265;32;34528;-70
2021/06/18 05:57:29;;;;;;;10.88;5.57;;;;;;;26.61;41.25;99928.81;4483543;32;33894;-70
2021/06/18 05:59:57;;;;;;;9.73;5.72;;;;;;;26.60;41.23;99929.06;4483581;32;35638;-70
2021/06/18 06:02:25;;;;;;;10.60;5.72;;;;;;;26.59;41.29;99925.50;4483346;32;32871;-70
2021/06/18 06:04:53;;;;;;;12.10;5.60;;;;;;;26.59;41.23;99928.25;4483446;32;33747;-70
2021/06/18 06:07:21;;;;;;;9.85;5.80;;;;;;;26.59;41.18;99930.97;4483524;32;34501;-70
2021/06/18 06:09:48;;;;;;;8.45;5.50;;;;;;;26.60;41.20;99929.06;4483379;32;33391;-69
2021/06/18 06:12:16;;;;;;;9.38;6.07;;;;;;;26.60;41.21;99927.16;4483348;32;33566;-69
2021/06/18 06:14:49;;;;;;;8.25;5.25;;;;;;;26.60;41.19;99929.91;4483392;32;34792;-70
2021/06/18 06:17:17;;;;;;;9.27;6.30;;;;;;;26.60;41.22;99938.09;4483677;32;34787;-69
2021/06/18 06:19:45;;;;;;;9.15;5.57;;;;;;;26.60;41.20;99929.06;4483861;32;34021;-70
2021/06/18 06:22:12;;;;;;;9.85;5.18;;;;;;;26.59;41.21;99936.44;4485286;32;33804;-68
2021/06/18 06:24:40;;;;;;;9.88;5.70;;;;;;;26.58;41.23;99934.81;4485278;32;34453;-70
2021/06/18 06:27:08;;;;;;;7.05;4.90;;;;;;;26.59;41.23;99936.44;4485175;32;33659;-69
2021/06/18 06:29:35;;;;;;;7.95;5.40;;;;;;;26.60;41.19;99940.84;4484954;32;34866;-70
2021/06/18 06:32:03;;;;;;;7.53;5.07;;;;;;;26.59;41.24;99947.41;4484943;32;34589;-69
2021/06/18 06:34:31;;;;;;;9.70;6.18;;;;;;;26.58;41.25;99934.81;4485024;32;33766;-69
2021/06/18 06:36:59;;;;;;;7.90;5.32;;;;;;;26.59;41.16;99930.97;4482657;32;33847;-68
2021/06/18 06:39:27;;;;;;;9.32;5.55;;;;;;;26.58;41.23;99929.31;4481779;32;34968;-69
2021/06/18 06:41:54;;;;;;;9.23;5.07;;;;;;;26.59;41.20;99933.72;4484563;32;32897;-70
2021/06/18 06:44:22;;;;;;;11.27;6.00;;;;;;;26.59;41.16;99925.50;4484855;32;33506;-68
2021/06/18 06:46:49;;;;;;;7.85;5.18;;;;;;;26.60;41.15;99929.06;4479070;32;34066;-67
2021/06/18 06:49:17;;;;;;;8.52;6.20;;;;;;;26.60;41.13;99929.06;4483327;32;34217;-70
2021/06/18 06:51:45;;;;;;;9.85;5.47;;;;;;;26.60;41.14;99938.09;4483191;32;34058;-71
2021/06/18 06:54:12;;;;;;;8.40;5.70;;;;;;;26.59;41.22;99936.44;4484756;32;33866;-72
2021/06/18 06:56:40;;;;;;;8.38;5.20;;;;;;;26.61;41.15;99942.50;4484839;32;33851;-67
2021/06/18 06:59:07;;;;;;;11.40;5.20;;;;;;;26.60;41.18;99935.38;4484780;32;34143;-68
2021/06/18 07:01:35;;;;;;;7.90;5.18;;;;;;;26.61;41.20;99947.97;4482730;32;33901;-70
2021/06/18 07:04:03;;;;;;;9.00;6.12;;;;;;;26.62;41.18;99943.31;4483484;32;34526;-70
2021/06/18 07:06:32;;;;;;;7.87;5.50;;;;;;;26.64;41.15;99939.28;4484302;32;34821;-69
2021/06/18 07:09:00;;;;;;;9.70;5.20;;;;;;;26.64;41.20;99938.47;4484976;32;34207;-70
2021/06/18 07:11:30;;;;;;;8.80;5.15;;;;;;;26.67;41.15;99947.00;4484949;32;33319;-71
2021/06/18 07:13:57;;;;;;;8.55;5.43;;;;;;;26.68;41.13;99940.47;4485033;32;33337;-70
2021/06/18 07:16:25;;;;;;;9.32;5.40;;;;;;;26.69;41.08;99947.59;4484785;32;33733;-70
2021/06/18 07:18:54;;;;;;;7.68;5.57;;;;;;;26.71;41.06;99945.44;4484628;32;33995;-70
2021/06/18 07:21:22;;;;;;;8.52;5.47;;;;;;;26.72;41.09;99951.75;4484594;32;33528;-70
2021/06/18 07:23:50;;;;;;;9.02;5.37;;;;;;;26.74;41.02;99940.56;4484585;32;33742;-68
2021/06/18 07:26:17;;;;;;;9.77;5.03;;;;;;;26.75;41.02;99945.78;4484780;32;33830;-70
2021/06/18 07:28:46;;;;;;;9.43;5.65;;;;;;;26.76;41.01;99932.91;4484083;32;33784;-70
2021/06/18 07:31:14;;;;;;;10.65;5.62;;;;;;;26.78;40.97;99942.56;4484686;32;34329;-69
2021/06/18 07:33:41;;;;;;;8.57;5.85;;;;;;;26.78;41.09;99934.34;4484822;32;33784;-69
2021/06/18 07:36:09;;;;;;;8.57;5.68;;;;;;;26.76;41.21;99936.47;4483350;32;33844;-66
2021/06/18 07:38:37;;;;;;;8.57;5.50;;;;;;;26.79;41.21;99926.97;4484882;32;34099;-68
2021/06/18 07:41:04;;;;;;;7.95;5.32;;;;;;;26.79;41.17;99927.78;4484507;32;33501;-69
2021/06/18 07:43:32;;;;;;;7.10;5.37;;;;;;;26.81;41.11;99927.53;4484370;32;33744;-70
2021/06/18 07:45:59;;;;;;;11.15;5.25;;;;;;;26.82;41.04;99930.03;4482934;32;34925;-69
2021/06/18 07:48:39;;;;;;;9.10;5.43;;;;;;;26.83;41.03;99925.41;4483349;32;34669;-72
2021/06/18 07:51:07;;;;;;;7.70;5.22;;;;;;;26.82;41.17;99923.75;4484034;32;34541;-71
2021/06/18 07:53:35;;;;;;;11.93;5.60;;;;;;;26.83;41.11;99926.22;4483913;32;33491;-73
2021/06/18 07:56:03;;;;;;;11.82;5.22;;;;;;;26.84;41.03;99922.41;4484822;32;33691;-72
2021/06/18 07:58:30;;;;;;;7.65;5.30;;;;;;;26.86;41.00;99916.66;4483071;32;34023;-72
2021/06/18 08:00:58;;;;;;;8.35;5.10;;;;;;;26.87;41.01;99921.09;4484606;32;33513;-71
2021/06/18 08:03:26;;;;;;;9.68;5.47;;;;;;;26.87;41.03;99921.09;4484265;32;34558;-72
2021/06/18 08:05:53;;;;;;;11.43;5.18;;;;;;;26.87;41.00;99921.91;4484327;32;33280;-72
2021/06/18 08:08:21;;;;;;;10.25;5.75;;;;;;;26.87;41.06;99918.34;4484509;32;34629;-70
2021/06/18 08:10:51;;;;;;;;;;;;;;;26.89;40.99;99921.66;4484700;32;33550;-71
2021/06/18 08:13:18;;;;;;;9.05;5.43;;;;;;;27.01;40.72;99922.44;4484323;32;34901;-72
2021/06/18 08:15:46;;;;;;;8.60;4.85;;;;;;;26.93;40.93;99925.56;4484251;32;33933;-70
2021/06/18 08:18:14;;;;;;;8.43;5.00;;;;;;;26.89;41.00;99919.75;4484137;32;34042;-71
2021/06/18 08:20:42;;;;;;;9.13;4.93;;;;;;;26.90;40.97;99920.56;4484299;32;32824;-70
2021/06/18 08:23:10;;;;;;;7.62;4.90;;;;;;;26.90;40.92;99912.38;4484015;32;34986;-72
2021/06/18 08:25:38;;;;;;;7.55;4.35;;;;;;;26.91;40.96;99914.88;4482892;32;33521;-71
2021/06/18 08:28:05;;;;;;;9.65;5.22;;;;;;;26.91;40.95;99916.78;4484334;32;34667;-71
2021/06/18 08:30:33;;;;;;;8.60;5.30;;;;;;;26.91;40.95;99911.31;4484167;31;32889;-69
2021/06/18 08:33:02;;;;;;;6.87;4.87;;;;;;;26.92;40.85;99902.00;4483836;32;33793;-72
2021/06/18 08:35:30;;;;;;;8.43;4.82;;;;;;;26.92;40.83;99907.50;4484053;32;33876;-71
2021/06/18 08:38:01;;;;;;;12.25;4.85;;;;;;;26.92;40.90;99915.69;4484512;32;34051;-70
2021/06/18 08:40:29;;;;;;;6.97;4.55;;;;;;;26.93;40.84;99911.88;4483125;32;34262;-67
2021/06/18 08:42:57;;;;;;;7.18;4.93;;;;;;;26.93;40.86;99915.44;4484159;32;34592;-71
2021/06/18 08:45:24;;;;;;;9.13;4.90;;;;;;;26.91;40.98;99920.34;4484020;32;33971;-70
2021/06/18 08:47:52;;;;;;;10.73;4.93;;;;;;;26.93;40.91;99909.13;4482153;32;33747;-69
2021/06/18 08:50:23;;;;;;;6.80;4.55;;;;;;;26.93;40.89;99909.97;4483951;32;33513;-70
2021/06/18 08:52:58;;;;;;;7.35;4.87;;;;;;;26.93;40.95;99903.66;4484188;32;33773;-66
2021/06/18 08:55:28;;;;;;;10.32;4.90;;;;;;;26.93;40.95;99911.88;4472780;32;34435;-69
2021/06/18 08:58:02;;;;;;;9.27;5.05;;;;;;;26.93;40.94;99911.88;4468420;32;34016;-68
2021/06/18 09:00:31;;;;;;;6.45;4.53;;;;;;;26.94;40.92;99908.06;4468234;32;33587;-69
2021/06/18 09:02:58;;;;;;;8.02;4.68;;;;;;;26.95;40.90;99909.72;4468299;32;33444;-70
2021/06/18 09:05:26;;;;;;;7.12;4.53;;;;;;;26.94;40.89;99908.06;4479908;32;33869;-69
2021/06/18 09:08:01;;;;;;;9.25;4.93;;;;;;;26.93;40.91;99915.44;4483766;32;34829;-69
2021/06/18 09:10:41;;;;;;;7.72;4.40;;;;;;;26.94;40.92;99910.78;4483895;32;34271;-69
2021/06/18 09:13:09;;;;;;;8.90;4.55;;;;;;;26.94;40.89;99911.63;4483928;32;33722;-69
2021/06/18 09:15:37;;;;;;;8.90;4.60;;;;;;;26.93;40.90;99904.50;4483954;32;33918;-69
2021/06/18 09:18:40;;;;;;;6.50;4.20;;;;;;;26.94;40.86;99908.06;4483860;32;34017;-68
2021/06/18 09:21:15;;;;;;;8.80;4.60;;;;;;;26.99;40.76;99902.66;4450629;31;33397;-68
2021/06/18 09:23:58;;;;;;;6.57;4.10;;;;;;;26.94;40.83;99895.19;4482414;32;34388;-69
2021/06/18 09:26:28;;;;;;;6.72;4.30;;;;;;;26.94;40.85;99892.44;4483892;32;33925;-68
2021/06/18 09:29:11;;;;;;;6.25;4.68;;;;;;;26.91;41.03;99901.19;4483625;32;34256;-69
2021/06/18 09:31:41;;;;;;;7.78;4.45;;;;;;;26.96;40.89;99898.53;4483831;32;33418;-69
2021/06/18 09:34:09;;;;;;;9.48;4.28;;;;;;;26.93;40.97;99893.53;4483578;32;33851;-68
2021/06/18 09:36:37;;;;;;;7.12;4.60;;;;;;;26.94;41.00;99895.19;4483709;32;34809;-68
2021/06/18 09:39:07;;;;;;;7.15;4.60;;;;;;;26.91;41.08;99886.66;4483702;32;35162;-68
2021/06/18 09:41:46;;;;;;;7.28;4.43;;;;;;;26.92;41.09;99891.88;4483384;32;33503;-64
2021/06/18 09:44:18;;;;;;;;;;;;;;;26.96;40.98;99884.00;4483907;32;33881;-70
2021/06/18 09:46:47;;;;;;;8.23;4.57;;;;;;;27.08;40.73;99889.41;4483725;32;34102;-69
2021/06/18 09:49:31;;;;;;;;;;;;;;;26.98;40.92;99883.75;4484038;32;34810;-69
2021/06/18 09:52:02;;;;;;;8.60;4.32;;;;;;;27.07;40.73;99885.81;4483031;32;33547;-68
2021/06/18 09:54:31;;;;;;;6.10;4.30;;;;;;;26.96;40.95;99882.09;4483460;32;34906;-69
2021/06/18 09:57:06;;;;;;;7.87;3.65;;;;;;;26.96;40.92;99881.28;4483596;32;33873;-70
2021/06/18 09:59:49;;;;;;;6.75;4.60;;;;;;;26.97;40.92;99882.94;4483530;32;34643;-67
2021/06/18 10:02:18;;;;;;;7.00;4.45;;;;;;;26.99;40.88;99879.94;4483543;32;33380;-68
2021/06/18 10:04:48;;;;;;;8.25;4.35;;;;;;;26.96;40.90;99876.63;4483239;32;34721;-69
2021/06/18 10:07:16;;;;;;;7.05;4.07;;;;;;;26.98;40.87;99872.81;4483467;32;33811;-69
2021/06/18 10:09:44;;;;;;;7.62;4.85;;;;;;;26.99;40.81;99866.25;4482155;32;34797;-70
2021/06/18 10:12:12;;;;;;;6.05;3.92;;;;;;;26.99;40.79;99869.81;4482196;32;33311;-69
2021/06/18 10:14:42;;;;;;;6.05;3.87;;;;;;;26.98;40.77;99868.16;4483322;32;33726;-68
2021/06/18 10:17:09;;;;;;;7.57;4.50;;;;;;;26.99;40.76;99868.97;4483155;32;34602;-68
2021/06/18 10:19:37;;;;;;;6.20;4.25;;;;;;;27.00;40.72;99863.28;4480325;32;87567;-68
2021/06/18 10:22:10;;;;;;;8.55;4.25;;;;;;;27.01;40.69;99869.56;4483339;32;34248;-69
2021/06/18 10:24:41;;;;;;;13.20;4.20;;;;;;;27.04;40.61;99860.84;4481886;32;33772;-69
2021/06/18 10:27:10;;;;;;;6.65;3.75;;;;;;;27.04;40.43;99861.66;4482056;32;33809;-70
2021/06/18 10:29:39;;;;;;;5.35;4.03;;;;;;;27.05;40.41;99857.88;4482991;32;35206;-70
2021/06/18 10:32:28;;;;;;;7.47;4.22;;;;;;;27.06;40.29;99856.78;4482769;32;34145;-69
2021/06/18 10:34:57;;;;;;;5.70;4.00;;;;;;;27.09;40.15;99852.75;4483027;32;33769;-69
2021/06/18 10:37:26;;;;;;;6.45;4.00;;;;;;;27.08;40.10;99857.38;4482833;32;33962;-69
2021/06/18 10:39:53;;;;;;;7.53;4.32;;;;;;;27.09;40.12;99850.84;4481543;32;34122;-69
2021/06/18 10:42:22;;;;;;;7.85;3.83;;;;;;;27.10;40.03;99852.50;4482804;32;34508;-68
2021/06/18 10:44:52;;;;;;;7.10;4.30;;;;;;;27.11;39.97;99843.22;4482741;32;35139;-69
2021/06/18 10:47:30;;;;;;;5.78;4.18;;;;;;;27.09;40.02;99839.03;4483037;32;33922;-69
2021/06/18 10:49:59;;;;;;;6.82;3.90;;;;;;;27.11;39.95;99835.00;4482679;32;34134;-69
2021/06/18 10:52:38;;;;;;;6.10;4.18;;;;;;;27.11;39.94;99839.63;4482761;32;33522;-69
2021/06/18 10:55:06;;;;;;;6.97;4.47;;;;;;;27.12;40.02;99835.81;4482516;32;33881;-69
2021/06/18 10:57:36;;;;;;;6.62;3.67;;;;;;;27.11;39.99;99835.00;4482656;32;33901;-68
2021/06/18 11:00:10;;;;;;;7.35;4.18;;;;;;;27.10;40.03;99838.00;4482742;32;34076;-68
2021/06/18 11:02:39;;;;;;;7.72;4.28;;;;;;;27.12;39.96;99833.91;4482510;32;33602;-67
2021/06/18 11:05:28;;;;;;;8.85;3.75;;;;;;;27.12;39.88;99824.84;4483941;32;33997;-69
2021/06/18 11:08:18;;;;;;;7.25;4.20;;;;;;;27.12;39.90;99822.12;4474874;31;33893;-67
2021/06/18 11:11:01;;;;;;;6.30;4.28;;;;;;;27.17;39.76;99828.50;4483392;32;33736;-68
2021/06/18 11:13:29;;;;;;;7.03;3.67;;;;;;;27.13;39.82;99827.34;4484959;32;33663;-69
2021/06/18 11:15:56;;;;;;;6.18;3.58;;;;;;;27.14;39.88;99834.50;4483522;32;34704;-69
2021/06/18 11:18:32;;;;;;;6.80;4.05;;;;;;;27.14;39.83;99825.44;4484682;32;33976;-69
2021/06/18 11:21:00;;;;;;;6.07;4.10;;;;;;;27.16;39.75;99826.03;4484531;32;34892;-69
2021/06/18 11:23:31;;;;;;;6.28;3.95;;;;;;;27.16;39.79;99826.03;4483637;32;33527;-69
2021/06/18 11:26:04;;;;;;;7.45;4.55;;;;;;;27.15;39.80;99824.38;4484521;32;33508;-68
2021/06/18 11:28:39;;;;;;;6.82;3.87;;;;;;;27.14;39.71;99823.53;4484720;32;33887;-69
2021/06/18 11:31:13;;;;;;;6.15;3.70;;;;;;;27.16;40.00;99820.53;4484267;31;33797;-69
2021/06/18 11:33:45;;;;;;;7.87;4.03;;;;;;;27.15;40.07;99818.91;4483981;32;34134;-67
2021/06/18 11:36:17;;;;;;;10.05;4.12;;;;;;;27.16;40.10;99813.16;4484217;32;33718;-68
2021/06/18 11:38:46;;;;;;;10.90;3.75;;;;;;;27.16;40.18;99812.31;4484716;32;33909;-68
2021/06/18 11:41:16;;;;;;;10.00;4.12;;;;;;;27.17;40.17;99813.97;4482847;32;34133;-70
2021/06/18 11:43:44;;;;;;;9.07;4.15;;;;;;;27.16;40.12;99813.16;4484192;32;33489;-71
2021/06/18 11:46:12;;;;;;;7.78;3.85;;;;;;;27.17;40.11;99803.84;4484641;32;33699;-69